SDIF weather

Public forecast

Using degrees Celsius for public forecast. Weather courtesy of forecast.io.

Closest aviation weather report (METAR) to Palácio Tiradentes Heliport

Closest report is Pampulha - Carlos Drummond de Andrade Airport, 3.9 nm (7.2 km) S. Retrieved 2020/08/13 16:00 UTC (5 minutes ago):

SBBH 131600Z 06005KT 9999 SCT040 26/11 Q1020

Closest aviation forecast (TAF) to Palácio Tiradentes Heliport

Forecast is more than 12 hours old.

Closest forecast is Pampulha - Carlos Drummond de Andrade Airport, 3.9 nm (7.2 km) S. Retrieved 2012/03/26 18:12 UTC (8 years ago):

TAF SBBH 261639Z 2618/2706 09005KT 9999 SCT030 TX28/2618Z TN20/2705Z PROB30 2619/2624 8000 TSRA BKN035 FEW045CB RMK PGG